Identifier: KMEV

AWOS Phone: 775-782-6264

AWOS Radio Freq: 119.325

Latitude: 39.00000000

Longitude: -119.75190000

Current Conditions

Updated: 12:28 PM GMT on 20 Sep 2018

  • Wind Speed (2min):
    CALM
  • Wind Direction (2min):
  • Temperature (10min):
    0 Celsius
  • Dew Point (10min):
    -6 Celsius
  • Humidity:
    64 Percent
  • Altimeter:
    30.09 inHG
  • Density Altitude:
  • Visibility:
    10 Miles
  • Clouds:
    CLR
  • Rainfall Current Hour:
    0 Inches
METAR: METAR KMEV 201230Z AUTO 00000KT 10SM CLR 00/M06 A3009 RMK AO2